createdAt,value
2023-05-11T00:02:25.164Z,9.70
2023-05-11T00:04:52.809Z,12.50
2023-05-11T00:07:19.512Z,8.27
2023-05-11T00:09:46.494Z,8.83
2023-05-11T00:12:14.174Z,5.57
2023-05-11T00:14:41.299Z,8.93
2023-05-11T00:17:08.023Z,9.40
2023-05-11T00:19:34.964Z,8.07
2023-05-11T00:22:01.883Z,9.47
2023-05-11T00:24:29.038Z,11.03
2023-05-11T00:26:55.905Z,10.47
2023-05-11T00:29:22.945Z,8.80
2023-05-11T00:31:50.195Z,12.73
2023-05-11T00:34:17.938Z,12.80
2023-05-11T00:36:45.447Z,9.03
2023-05-11T00:39:12.570Z,12.10
2023-05-11T00:41:40.442Z,6.50
2023-05-11T00:44:07.517Z,10.00
2023-05-11T00:46:34.416Z,11.97
2023-05-11T00:49:02.276Z,8.57
2023-05-11T00:51:29.142Z,15.57
2023-05-11T00:53:56.169Z,15.40
2023-05-11T00:56:22.994Z,13.03
2023-05-11T00:58:50.364Z,15.87
2023-05-11T01:01:18.725Z,7.40
2023-05-11T01:03:47.139Z,9.40
2023-05-11T01:06:31.869Z,10.40
2023-05-11T01:09:34.387Z,15.07
2023-05-11T01:12:13.530Z,10.47
2023-05-11T01:14:59.755Z,15.07
2023-05-11T01:17:38.105Z,8.07
2023-05-11T01:20:12.656Z,11.00
2023-05-11T01:22:56.158Z,8.77
2023-05-11T01:25:30.259Z,6.40
2023-05-11T01:28:13.023Z,7.32
2023-05-11T01:30:49.736Z,8.30
2023-05-11T01:33:21.701Z,9.83
2023-05-11T01:35:53.599Z,6.97
2023-05-11T01:38:22.346Z,8.57
2023-05-11T01:40:55.987Z,9.87
2023-05-11T01:43:26.319Z,9.17
2023-05-11T01:45:58.814Z,9.03
2023-05-11T01:48:29.422Z,7.10
2023-05-11T01:51:00.772Z,6.83
2023-05-11T01:53:32.128Z,8.30
2023-05-11T01:56:00.696Z,7.33
2023-05-11T01:58:29.032Z,7.37
2023-05-11T02:00:57.480Z,7.50
2023-05-11T02:03:25.937Z,6.83
2023-05-11T02:05:54.206Z,7.17
2023-05-11T02:08:22.244Z,11.23
2023-05-11T02:10:50.627Z,7.67
2023-05-11T02:13:19.586Z,8.37
2023-05-11T02:15:50.864Z,6.87
2023-05-11T02:18:19.784Z,8.10
2023-05-11T02:20:48.125Z,8.13
2023-05-11T02:23:17.276Z,9.93
2023-05-11T02:25:44.859Z,13.07
2023-05-11T02:28:11.996Z,7.70
2023-05-11T02:30:47.927Z,12.57
2023-05-11T02:33:20.181Z,9.20
2023-05-11T02:35:48.192Z,10.20
2023-05-11T02:38:16.507Z,8.20
2023-05-11T02:40:48.321Z,12.97
2023-05-11T02:43:23.623Z,11.23
2023-05-11T02:46:02.177Z,10.47
2023-05-11T02:48:34.595Z,10.17
2023-05-11T02:51:06.135Z,13.53
2023-05-11T02:53:40.014Z,10.17
2023-05-11T02:56:08.337Z,11.27
2023-05-11T02:58:36.502Z,11.03
2023-05-11T03:01:36.304Z,10.73
2023-05-11T03:04:06.725Z,12.37
2023-05-11T03:06:34.142Z,10.77
2023-05-11T03:09:03.071Z,12.37
2023-05-11T03:11:32.634Z,10.60
2023-05-11T03:14:01.753Z,11.17
2023-05-11T03:16:29.922Z,8.87
2023-05-11T03:18:58.085Z,10.43
2023-05-11T03:21:26.417Z,9.37
2023-05-11T03:23:54.231Z,9.33
2023-05-11T03:26:22.109Z,10.73
2023-05-11T03:28:53.059Z,15.03
2023-05-11T03:31:20.321Z,10.20
2023-05-11T03:33:47.435Z,12.43
2023-05-11T03:36:15.763Z,10.30
2023-05-11T03:38:46.397Z,10.53
2023-05-11T03:41:17.589Z,11.80
2023-05-11T03:43:51.730Z,10.93
2023-05-11T03:46:22.777Z,13.53
2023-05-11T03:48:50.717Z,22.90
2023-05-11T03:51:21.837Z,16.77
2023-05-11T03:53:48.857Z,15.97
2023-05-11T03:56:16.145Z,13.40
2023-05-11T03:58:42.944Z,17.00
2023-05-11T04:01:12.745Z,13.63
2023-05-11T04:03:53.404Z,16.70
2023-05-11T04:06:21.830Z,16.80
2023-05-11T04:08:56.764Z,21.80
2023-05-11T04:11:23.831Z,28.10
2023-05-11T04:13:50.604Z,13.13
2023-05-11T04:16:17.633Z,24.67
2023-05-11T04:18:44.477Z,17.13
2023-05-11T04:21:11.690Z,11.07
2023-05-11T04:23:38.767Z,7.40
2023-05-11T04:26:06.025Z,8.30
2023-05-11T04:28:32.788Z,9.33
2023-05-11T04:30:59.805Z,10.03
2023-05-11T04:33:26.694Z,6.40
2023-05-11T04:35:55.907Z,11.23
2023-05-11T04:38:24.697Z,10.70
2023-05-11T04:40:51.688Z,10.53
2023-05-11T04:43:19.655Z,7.80
2023-05-11T04:45:50.901Z,11.70
2023-05-11T04:48:23.074Z,11.90
2023-05-11T04:50:53.435Z,6.53
2023-05-11T04:53:21.934Z,9.67
2023-05-11T04:55:49.225Z,8.83
2023-05-11T04:58:16.123Z,9.17
2023-05-11T05:00:43.179Z,7.57
2023-05-11T05:03:10.103Z,7.60
2023-05-11T05:05:37.168Z,10.63
2023-05-11T05:08:04.027Z,7.70
2023-05-11T05:10:31.191Z,9.80
2023-05-11T05:12:58.197Z,17.47
2023-05-11T05:15:26.504Z,10.77
2023-05-11T05:17:53.772Z,10.93
2023-05-11T05:20:21.259Z,12.23
2023-05-11T05:22:48.103Z,9.43
2023-05-11T05:25:15.413Z,10.07
2023-05-11T05:27:42.166Z,7.13
2023-05-11T05:30:13.622Z,8.97
2023-05-11T05:32:40.459Z,13.07
2023-05-11T05:35:07.951Z,10.73
2023-05-11T05:37:34.781Z,8.47
2023-05-11T05:40:02.088Z,15.23
2023-05-11T05:42:30.983Z,10.67
2023-05-11T05:44:58.275Z,11.53
2023-05-11T05:47:25.489Z,13.30
2023-05-11T05:49:52.607Z,14.00
2023-05-11T05:52:19.457Z,9.27
2023-05-11T05:54:48.172Z,8.40
2023-05-11T05:57:15.759Z,11.23
2023-05-11T05:59:44.727Z,12.77
2023-05-11T06:02:13.551Z,9.63
2023-05-11T06:04:42.013Z,11.00
2023-05-11T06:07:09.443Z,8.25
2023-05-11T06:09:39.010Z,10.98
2023-05-11T06:12:06.565Z,10.07
2023-05-11T06:14:36.672Z,6.68
2023-05-11T06:17:03.672Z,11.35
2023-05-11T06:19:30.675Z,7.50
2023-05-11T06:21:58.715Z,6.60
2023-05-11T06:24:25.881Z,7.47
2023-05-11T06:26:52.695Z,6.75
2023-05-11T06:29:22.268Z,9.05
2023-05-11T06:31:53.015Z,7.13
2023-05-11T06:34:21.049Z,7.07
2023-05-11T06:36:49.080Z,7.93
2023-05-11T06:39:16.138Z,6.82
2023-05-11T06:41:43.155Z,11.55
2023-05-11T06:44:10.214Z,11.23
2023-05-11T06:46:38.698Z,4.68
2023-05-11T06:49:05.875Z,7.63
2023-05-11T06:51:32.733Z,6.72
2023-05-11T06:53:59.799Z,11.13
2023-05-11T06:56:27.356Z,11.18
2023-05-11T06:58:54.617Z,11.13
2023-05-11T07:01:21.412Z,8.20
2023-05-11T07:03:49.754Z,10.63
2023-05-11T07:06:17.677Z,8.50
2023-05-11T07:08:44.699Z,6.25
2023-05-11T07:11:12.998Z,7.05
2023-05-11T07:13:40.084Z,6.55
2023-05-11T07:16:07.002Z,7.53
2023-05-11T07:18:34.016Z,12.93
2023-05-11T07:21:00.748Z,7.97
2023-05-11T07:23:27.748Z,8.50
2023-05-11T07:25:57.388Z,7.90
2023-05-11T07:28:24.548Z,7.72
2023-05-11T07:30:51.399Z,10.48
2023-05-11T07:33:18.451Z,6.97
2023-05-11T07:35:45.797Z,7.57
2023-05-11T07:38:13.789Z,7.30
2023-05-11T07:40:40.561Z,6.13
2023-05-11T07:43:07.558Z,6.93
2023-05-11T07:45:34.326Z,6.95
2023-05-11T07:48:01.300Z,3.88
2023-05-11T07:50:28.208Z,10.70
2023-05-11T07:52:55.291Z,9.73
2023-05-11T07:55:25.027Z,5.95
2023-05-11T07:57:54.406Z,11.63
2023-05-11T08:00:21.901Z,14.02
2023-05-11T08:02:49.082Z,6.35
2023-05-11T08:05:17.537Z,11.90
2023-05-11T08:07:44.700Z,3.38
2023-05-11T08:10:12.033Z,9.20
2023-05-11T08:12:39.367Z,6.93
2023-05-11T08:15:06.466Z,6.38
2023-05-11T08:17:34.476Z,11.90
2023-05-11T08:20:01.446Z,11.95
2023-05-11T08:22:28.546Z,9.30
2023-05-11T08:24:55.230Z,9.35
2023-05-11T08:27:22.244Z,10.10
2023-05-11T08:29:48.984Z,8.57
2023-05-11T08:32:16.134Z,11.35
2023-05-11T08:34:43.586Z,12.80
2023-05-11T08:37:10.773Z,7.70
2023-05-11T08:39:46.129Z,6.25
2023-05-11T08:42:19.034Z,6.70
2023-05-11T08:44:48.060Z,6.80
2023-05-11T08:49:45.389Z,5.82
2023-05-11T08:52:14.014Z,8.27
2023-05-11T08:54:40.913Z,9.07
2023-05-11T08:57:08.693Z,6.55
2023-05-11T08:59:36.053Z,6.93
2023-05-11T09:02:04.542Z,9.73
2023-05-11T09:04:32.429Z,11.23
2023-05-11T09:06:59.943Z,9.98
2023-05-11T09:09:26.800Z,10.80
2023-05-11T09:11:54.228Z,4.53
2023-05-11T09:14:27.009Z,14.30
2023-05-11T09:16:54.507Z,13.63
2023-05-11T09:19:21.893Z,12.20
2023-05-11T09:21:48.998Z,6.72
2023-05-11T09:24:15.871Z,7.65
2023-05-11T09:26:43.128Z,8.55
2023-05-11T09:29:09.915Z,4.03
2023-05-11T09:31:47.486Z,11.75
2023-05-11T09:34:18.781Z,4.75
2023-05-11T09:36:48.891Z,3.83
2023-05-11T09:39:17.131Z,6.28
2023-05-11T09:42:22.011Z,7.72
2023-05-11T09:44:49.049Z,10.23
2023-05-11T09:47:17.825Z,9.73
2023-05-11T09:49:46.605Z,7.65
2023-05-11T09:52:15.900Z,4.63
2023-05-11T09:54:43.943Z,4.40
2023-05-11T09:57:31.191Z,8.02
2023-05-11T10:00:00.063Z,8.18
2023-05-11T10:02:32.171Z,3.33
2023-05-11T10:05:01.122Z,4.40
2023-05-11T10:07:36.046Z,9.75
2023-05-11T10:10:07.710Z,5.75
2023-05-11T10:12:38.296Z,6.90
2023-05-11T10:15:10.070Z,7.30
2023-05-11T10:17:37.847Z,4.63
2023-05-11T10:20:06.184Z,3.53
2023-05-11T10:22:33.706Z,11.52
2023-05-11T10:25:01.517Z,5.65
2023-05-11T10:27:28.775Z,8.05
2023-05-11T10:29:58.264Z,10.95
2023-05-11T10:32:25.426Z,6.40
2023-05-11T10:35:03.203Z,11.25
2023-05-11T10:37:30.708Z,7.05
2023-05-11T10:39:57.885Z,9.07
2023-05-11T10:43:02.834Z,7.00
2023-05-11T10:46:08.734Z,7.05
2023-05-11T10:48:57.822Z,4.47
2023-05-11T10:51:40.599Z,6.78
2023-05-11T10:54:34.359Z,6.60
2023-05-11T10:57:12.294Z,6.65
2023-05-11T10:59:45.598Z,9.13
2023-05-11T11:02:12.518Z,8.57
2023-05-11T11:04:44.439Z,6.13
2023-05-11T11:07:13.223Z,4.80
2023-05-11T11:10:09.959Z,8.90
2023-05-11T11:12:36.930Z,6.18
2023-05-11T11:15:06.542Z,8.30
2023-05-11T11:17:35.871Z,12.02
2023-05-11T11:20:07.771Z,8.15
2023-05-11T11:22:34.647Z,4.88
2023-05-11T11:25:05.052Z,3.55
2023-05-11T11:27:41.192Z,6.95
2023-05-11T11:30:28.808Z,4.78
2023-05-11T11:33:16.095Z,3.30
2023-05-11T11:35:45.931Z,11.85
2023-05-11T11:38:15.358Z,7.43
2023-05-11T11:43:19.916Z,5.70
2023-05-11T11:45:57.226Z,3.25
2023-05-11T11:48:42.431Z,3.80
2023-05-11T11:51:11.530Z,4.20
2023-05-11T11:53:38.515Z,5.13
2023-05-11T11:56:11.358Z,4.65
2023-05-11T11:58:40.914Z,7.95
2023-05-11T12:01:09.285Z,5.72
2023-05-11T12:03:37.395Z,7.65
2023-05-11T12:06:06.314Z,10.43
2023-05-11T12:08:33.038Z,4.47
2023-05-11T12:11:01.399Z,9.82
2023-05-11T12:13:28.861Z,10.38
2023-05-11T12:16:15.747Z,8.02
2023-05-11T12:18:52.527Z,12.75
2023-05-11T12:21:21.237Z,11.88
2023-05-11T12:24:02.075Z,12.30
2023-05-11T12:26:30.516Z,7.38
2023-05-11T12:29:24.252Z,7.43
2023-05-11T12:31:51.595Z,7.53
2023-05-11T12:34:20.953Z,9.88
2023-05-11T12:36:50.090Z,8.43
2023-05-11T12:39:18.933Z,2.63
2023-05-11T12:41:48.129Z,4.43
2023-05-11T12:44:17.203Z,8.65
2023-05-11T12:46:46.863Z,18.73
2023-05-11T12:51:59.959Z,4.65
2023-05-11T12:54:55.202Z,6.50
2023-05-11T12:57:31.049Z,4.88
2023-05-11T13:00:16.767Z,4.93
2023-05-11T13:02:54.922Z,4.05
2023-05-11T13:05:26.308Z,7.72
2023-05-11T13:08:05.778Z,9.90
2023-05-11T13:10:32.561Z,4.53
2023-05-11T13:12:59.628Z,8.35
2023-05-11T13:15:28.587Z,12.48
2023-05-11T13:18:01.258Z,4.82
2023-05-11T13:20:33.043Z,7.88
2023-05-11T13:23:08.332Z,6.13
2023-05-11T13:25:55.511Z,8.25
2023-05-11T13:28:24.384Z,4.90
2023-05-11T13:30:59.070Z,9.05
2023-05-11T13:33:26.192Z,5.65
2023-05-11T13:35:52.904Z,7.32
2023-05-11T13:38:19.954Z,13.13
2023-05-11T13:40:46.649Z,6.22
2023-05-11T13:43:13.734Z,11.38
2023-05-11T13:45:41.284Z,4.20
2023-05-11T13:48:08.677Z,4.43
2023-05-11T13:50:35.615Z,6.15
2023-05-11T13:53:02.948Z,6.95
2023-05-11T13:55:30.130Z,5.47
2023-05-11T13:57:58.346Z,7.28
2023-05-11T14:00:26.071Z,6.93
2023-05-11T14:02:53.035Z,5.55
2023-05-11T14:05:20.454Z,5.40
2023-05-11T14:07:48.607Z,6.95
2023-05-11T14:10:17.594Z,6.65
2023-05-11T14:12:45.374Z,9.00
2023-05-11T14:15:12.487Z,5.18
2023-05-11T14:17:41.621Z,5.53
2023-05-11T14:20:09.447Z,3.53
2023-05-11T14:22:36.417Z,7.25
2023-05-11T14:25:03.510Z,5.15
2023-05-11T14:27:30.272Z,7.80
2023-05-11T14:29:57.240Z,10.35
2023-05-11T14:32:24.162Z,12.85
2023-05-11T14:34:51.337Z,7.07
2023-05-11T14:37:18.113Z,17.00
2023-05-11T14:39:45.075Z,9.25
2023-05-11T14:42:11.818Z,3.67
2023-05-11T14:44:38.846Z,7.63
2023-05-11T14:47:05.995Z,6.47
2023-05-11T14:49:33.053Z,3.30
2023-05-11T14:51:59.889Z,6.88
2023-05-11T14:54:26.885Z,5.93
2023-05-11T14:56:56.229Z,5.97
2023-05-11T14:59:27.022Z,7.43
2023-05-11T15:01:53.915Z,4.88
2023-05-11T15:04:21.142Z,9.02
2023-05-11T15:06:48.482Z,21.58
2023-05-11T15:09:15.389Z,5.70
2023-05-11T15:11:42.411Z,10.00
2023-05-11T15:14:09.348Z,7.53
2023-05-11T15:16:37.361Z,5.03
2023-05-11T15:19:05.352Z,12.32
2023-05-11T15:21:32.582Z,10.30
2023-05-11T15:23:59.328Z,5.28
2023-05-11T15:26:26.371Z,11.73
2023-05-11T15:28:53.418Z,9.60
2023-05-11T15:31:20.840Z,7.47
2023-05-11T15:33:47.573Z,11.50
2023-05-11T15:36:15.491Z,5.40
2023-05-11T15:38:43.483Z,5.00
2023-05-11T15:41:10.509Z,4.75
2023-05-11T15:43:37.315Z,8.52
2023-05-11T15:46:05.693Z,14.75
2023-05-11T15:48:32.811Z,10.65
2023-05-11T15:51:01.001Z,9.07
2023-05-11T15:53:28.718Z,12.10
2023-05-11T15:55:56.663Z,9.88
2023-05-11T15:58:23.420Z,3.80
2023-05-11T16:00:50.665Z,8.98
2023-05-11T16:03:17.755Z,4.90
2023-05-11T16:05:45.487Z,7.18
2023-05-11T16:08:12.610Z,10.57
2023-05-11T16:10:40.044Z,8.23
2023-05-11T16:13:08.815Z,5.20
2023-05-11T16:15:35.952Z,6.72
2023-05-11T16:18:04.818Z,9.73
2023-05-11T16:20:32.605Z,5.32
2023-05-11T16:22:59.359Z,10.35
2023-05-11T16:25:26.475Z,7.10
2023-05-11T16:27:53.232Z,10.73
2023-05-11T16:30:24.971Z,4.90
2023-05-11T16:32:53.596Z,11.48
2023-05-11T16:35:20.978Z,7.75
2023-05-11T16:37:48.303Z,9.70
2023-05-11T16:40:19.150Z,7.32
2023-05-11T16:42:47.382Z,3.72
2023-05-11T16:45:15.221Z,8.40
2023-05-11T16:47:44.685Z,7.30
2023-05-11T16:50:14.714Z,9.20
2023-05-11T16:52:42.472Z,8.13
2023-05-11T16:55:10.246Z,6.85
2023-05-11T16:57:37.081Z,5.22
2023-05-11T17:00:04.765Z,6.50
2023-05-11T17:02:31.693Z,10.63
2023-05-11T17:04:58.988Z,11.60
2023-05-11T17:07:26.353Z,5.22
2023-05-11T17:09:56.951Z,5.90
2023-05-11T17:12:24.159Z,5.25
2023-05-11T17:14:51.292Z,7.97
2023-05-11T17:17:18.176Z,8.07
2023-05-11T17:19:45.608Z,3.08
2023-05-11T17:22:12.601Z,8.98
2023-05-11T17:24:39.775Z,6.95
2023-05-11T17:27:06.999Z,11.00
2023-05-11T17:29:34.068Z,10.57
2023-05-11T17:32:01.166Z,11.05
2023-05-11T17:34:28.878Z,4.85
2023-05-11T17:36:56.733Z,7.28
2023-05-11T17:39:23.801Z,9.23
2023-05-11T17:41:50.529Z,4.75
2023-05-11T17:44:17.705Z,14.13
2023-05-11T17:46:44.503Z,13.88
2023-05-11T17:49:11.537Z,9.65
2023-05-11T17:51:38.312Z,4.50
2023-05-11T17:54:05.382Z,11.10
2023-05-11T17:56:32.773Z,13.13
2023-05-11T17:58:59.804Z,11.35
2023-05-11T18:01:27.660Z,15.23
2023-05-11T18:03:55.037Z,10.02
2023-05-11T18:06:21.961Z,18.58
2023-05-11T18:08:49.140Z,12.40
2023-05-11T18:11:15.875Z,8.80
2023-05-11T18:13:42.820Z,8.88
2023-05-11T18:16:09.695Z,10.65
2023-05-11T18:18:36.958Z,10.55
2023-05-11T18:21:07.422Z,8.63
2023-05-11T18:23:34.646Z,10.00
2023-05-11T18:26:01.477Z,13.02
2023-05-11T18:28:28.522Z,9.38
2023-05-11T18:30:55.780Z,18.15
2023-05-11T18:33:23.543Z,15.02
2023-05-11T18:35:51.405Z,11.38
2023-05-11T18:38:18.528Z,11.25
2023-05-11T18:40:45.395Z,16.77
2023-05-11T18:43:13.695Z,16.60
2023-05-11T18:45:41.445Z,23.90
2023-05-11T18:48:08.637Z,27.55
2023-05-11T18:50:35.771Z,38.58
2023-05-11T18:53:02.831Z,50.75
2023-05-11T18:55:31.436Z,54.78
2023-05-11T18:58:03.084Z,47.70
2023-05-11T19:00:31.150Z,67.75
2023-05-11T19:02:58.260Z,61.50
2023-05-11T19:05:25.093Z,67.32
2023-05-11T19:07:52.261Z,50.55
2023-05-11T19:10:19.248Z,41.50
2023-05-11T19:12:46.408Z,42.05
2023-05-11T19:15:13.183Z,37.10
2023-05-11T19:17:40.388Z,44.17
2023-05-11T19:20:08.318Z,72.05
2023-05-11T19:22:35.867Z,111.43
2023-05-11T19:25:02.582Z,87.07
2023-05-11T19:27:29.647Z,73.38
2023-05-11T19:29:56.493Z,98.50
2023-05-11T19:32:23.600Z,102.65
2023-05-11T19:34:50.383Z,63.92
2023-05-11T19:37:17.478Z,51.53
2023-05-11T19:39:44.197Z,47.75
2023-05-11T19:42:11.699Z,57.35
2023-05-11T19:44:43.384Z,46.08
2023-05-11T19:47:10.674Z,34.30
2023-05-11T19:49:37.569Z,33.38
2023-05-11T19:52:04.846Z,27.50
2023-05-11T19:54:32.347Z,29.40
2023-05-11T19:57:00.265Z,34.63
2023-05-11T19:59:32.560Z,36.47
2023-05-11T20:02:00.967Z,29.75
2023-05-11T20:04:31.087Z,27.27
2023-05-11T20:06:58.137Z,19.88
2023-05-11T20:09:25.275Z,21.63
2023-05-11T20:11:52.326Z,25.73
2023-05-11T20:14:19.192Z,18.33
2023-05-11T20:16:46.295Z,17.73
2023-05-11T20:19:13.211Z,15.55
2023-05-11T20:21:40.328Z,22.85
2023-05-11T20:24:07.306Z,24.85
2023-05-11T20:26:34.350Z,33.28
2023-05-11T20:29:01.169Z,87.45
2023-05-11T20:31:28.227Z,50.08
2023-05-11T20:36:26.644Z,64.80
2023-05-11T20:38:54.253Z,49.83
2023-05-11T20:41:22.158Z,37.53
2023-05-11T20:43:48.892Z,30.85
2023-05-11T20:46:16.058Z,27.77
2023-05-11T20:48:45.630Z,28.33
2023-05-11T20:51:15.518Z,29.88
2023-05-11T20:53:42.249Z,23.17
2023-05-11T20:56:12.554Z,22.75
2023-05-11T20:58:39.394Z,23.00
2023-05-11T21:01:06.654Z,25.17
2023-05-11T21:03:33.513Z,34.95
2023-05-11T21:06:00.644Z,27.00
2023-05-11T21:08:27.411Z,25.73
2023-05-11T21:10:54.808Z,33.13
2023-05-11T21:13:22.014Z,31.70
2023-05-11T21:15:48.974Z,36.63
2023-05-11T21:18:15.787Z,29.35
2023-05-11T21:20:43.345Z,32.30
2023-05-11T21:23:10.416Z,24.58
2023-05-11T21:25:37.568Z,29.33
2023-05-11T21:28:04.861Z,29.37
2023-05-11T21:30:31.999Z,34.15
2023-05-11T21:32:58.828Z,49.55
2023-05-11T21:35:26.215Z,44.90
2023-05-11T21:37:52.887Z,59.27
2023-05-11T21:40:20.161Z,58.03
2023-05-11T21:42:47.143Z,54.63
2023-05-11T21:45:14.225Z,54.58
2023-05-11T21:47:41.143Z,49.43
2023-05-11T21:50:08.795Z,36.07
2023-05-11T21:52:36.864Z,23.07
2023-05-11T21:55:04.830Z,19.07
2023-05-11T21:57:31.730Z,23.83
2023-05-11T21:59:59.259Z,21.50
2023-05-11T22:02:27.224Z,28.97
2023-05-11T22:04:54.386Z,19.50
2023-05-11T22:07:22.867Z,20.07
2023-05-11T22:09:49.800Z,24.23
2023-05-11T22:12:16.943Z,21.10
2023-05-11T22:14:43.988Z,20.47
2023-05-11T22:17:11.056Z,23.20
2023-05-11T22:19:38.123Z,17.90
2023-05-11T22:22:05.025Z,18.50
2023-05-11T22:24:31.986Z,16.27
2023-05-11T22:26:59.391Z,16.37
2023-05-11T22:29:26.397Z,15.20
2023-05-11T22:31:53.279Z,16.27
2023-05-11T22:34:23.694Z,17.03
2023-05-11T22:36:50.437Z,15.40
2023-05-11T22:39:17.489Z,13.37
2023-05-11T22:41:44.381Z,13.80
2023-05-11T22:44:11.400Z,13.60
2023-05-11T22:46:38.193Z,13.13
2023-05-11T22:49:05.153Z,13.53
2023-05-11T22:51:31.916Z,14.60
2023-05-11T22:53:58.900Z,15.10
2023-05-11T22:56:25.596Z,16.00
2023-05-11T22:58:54.887Z,14.47
2023-05-11T23:01:21.668Z,16.77
2023-05-11T23:03:48.706Z,16.77
2023-05-11T23:06:15.467Z,13.73
2023-05-11T23:08:42.932Z,14.53
2023-05-11T23:11:09.817Z,21.63
2023-05-11T23:13:37.383Z,19.77
2023-05-11T23:16:04.635Z,16.90
2023-05-11T23:18:32.049Z,15.17
2023-05-11T23:20:59.900Z,15.17
2023-05-11T23:23:27.504Z,20.33
2023-05-11T23:25:54.370Z,22.60
2023-05-11T23:28:21.325Z,17.83
2023-05-11T23:30:48.083Z,15.93
2023-05-11T23:33:15.193Z,20.90
2023-05-11T23:35:42.045Z,16.57
2023-05-11T23:38:09.529Z,24.17
2023-05-11T23:40:36.344Z,17.93
2023-05-11T23:43:03.361Z,17.30
2023-05-11T23:45:30.740Z,18.47
2023-05-11T23:47:57.853Z,21.70
2023-05-11T23:50:24.608Z,22.23
2023-05-11T23:52:51.662Z,19.50
2023-05-11T23:55:18.499Z,19.83
2023-05-11T23:57:45.596Z,18.57
